Airport View

Enter AWOS ICAO identifier for current METAR.

ex. KFNL

KPUC 041353Z AUTO 00000KT 10SM CLR 19/05 A3023 RMK AO2 SLP149 T01940050

4 Jul 2020 14:30

Frequency: 135.425

Phone: 435-637-2790

Other Area AWOS: KPVU - KHCR - K36U - KCNY

TAF KPVU 041120Z 0412/0512 14008KT P6SM FEW120 FM041900 19008G16KT P6SM FEW120 FM050000 25009KT P6SM FEW120 FM050500 16008KT P6SM SKC